createdAt,value
2018-06-12T00:00:21.497Z,99.90
2018-06-12T00:02:52.212Z,99.90
2018-06-12T00:05:22.672Z,99.90
2018-06-12T00:07:53.268Z,99.90
2018-06-12T00:10:24.247Z,99.90
2018-06-12T00:12:54.741Z,99.90
2018-06-12T00:15:25.329Z,99.90
2018-06-12T00:17:56.680Z,99.90
2018-06-12T00:20:27.526Z,99.90
2018-06-12T00:22:57.986Z,99.90
2018-06-12T00:25:28.533Z,99.90
2018-06-12T00:27:59.641Z,99.90
2018-06-12T00:30:30.184Z,99.90
2018-06-12T00:33:00.956Z,99.90
2018-06-12T00:35:31.571Z,99.90
2018-06-12T00:38:02.032Z,99.90
2018-06-12T00:40:32.334Z,99.90
2018-06-12T00:43:03.590Z,99.90
2018-06-12T00:45:34.093Z,99.90
2018-06-12T00:48:04.941Z,99.90
2018-06-12T00:50:35.564Z,99.90
2018-06-12T00:53:06.165Z,99.90
2018-06-12T00:55:36.760Z,99.90
2018-06-12T00:58:07.273Z,99.90
2018-06-12T01:00:37.849Z,99.90
2018-06-12T01:03:08.572Z,99.90
2018-06-12T01:05:39.250Z,99.90
2018-06-12T01:08:09.845Z,99.90
2018-06-12T01:10:40.520Z,99.90
2018-06-12T01:13:11.300Z,99.90
2018-06-12T01:15:42.027Z,99.90
2018-06-12T01:18:12.532Z,99.90
2018-06-12T01:20:43.492Z,99.90
2018-06-12T01:23:14.105Z,99.90
2018-06-12T01:25:44.677Z,99.90
2018-06-12T01:28:15.378Z,99.90
2018-06-12T01:30:46.264Z,99.90
2018-06-12T01:33:17.086Z,99.90
2018-06-12T01:35:47.656Z,99.90
2018-06-12T01:38:18.051Z,99.90
2018-06-12T01:40:48.724Z,99.90
2018-06-12T01:43:19.205Z,99.90
2018-06-12T01:45:50.223Z,99.90
2018-06-12T01:48:20.753Z,99.90
2018-06-12T01:50:51.295Z,99.90
2018-06-12T01:53:21.784Z,99.90
2018-06-12T01:55:52.438Z,99.90
2018-06-12T01:58:23.004Z,99.90
2018-06-12T02:00:53.415Z,99.90
2018-06-12T02:03:24.042Z,99.90
2018-06-12T02:05:54.853Z,99.90
2018-06-12T02:08:25.384Z,99.90
2018-06-12T02:10:55.935Z,99.90
2018-06-12T02:13:26.504Z,99.90
2018-06-12T02:15:57.119Z,99.90
2018-06-12T02:18:27.524Z,99.90
2018-06-12T02:20:58.026Z,99.90
2018-06-12T02:23:28.567Z,99.90
2018-06-12T02:25:59.100Z,99.90
2018-06-12T02:28:29.527Z,99.90
2018-06-12T02:31:00.434Z,99.90
2018-06-12T02:33:30.942Z,99.90
2018-06-12T02:38:31.480Z,99.90
2018-06-12T02:41:02.301Z,99.90
2018-06-12T02:43:32.930Z,99.90
2018-06-12T02:46:03.309Z,99.90
2018-06-12T02:48:33.815Z,99.90
2018-06-12T02:51:04.516Z,99.90
2018-06-12T02:53:35.037Z,99.90
2018-06-12T02:56:05.760Z,99.90
2018-06-12T02:58:36.564Z,99.90
2018-06-12T03:01:07.251Z,99.90
2018-06-12T03:03:37.756Z,99.90
2018-06-12T03:06:08.279Z,99.90
2018-06-12T03:08:38.764Z,99.90
2018-06-12T03:11:09.166Z,99.90
2018-06-12T03:13:39.668Z,99.90
2018-06-12T03:16:10.337Z,99.90
2018-06-12T03:18:40.846Z,99.90
2018-06-12T03:21:11.308Z,99.90
2018-06-12T03:23:41.751Z,99.90
2018-06-12T03:26:12.519Z,99.90
2018-06-12T03:28:43.168Z,99.90
2018-06-12T03:31:13.728Z,99.90
2018-06-12T03:33:44.376Z,99.90
2018-06-12T03:36:14.895Z,99.90
2018-06-12T03:38:45.493Z,99.90
2018-06-12T03:41:16.068Z,99.90
2018-06-12T03:43:46.742Z,99.90
2018-06-12T03:46:17.295Z,99.90
2018-06-12T03:48:47.910Z,99.90
2018-06-12T03:51:18.675Z,99.90
2018-06-12T03:53:49.268Z,99.90
2018-06-12T03:56:20.162Z,99.90
2018-06-12T03:58:50.630Z,99.90
2018-06-12T04:01:21.051Z,99.90
2018-06-12T04:03:51.496Z,99.90
2018-06-12T04:06:22.093Z,99.90
2018-06-12T04:08:52.641Z,99.90
2018-06-12T04:11:23.195Z,99.90
2018-06-12T04:13:53.655Z,99.90
2018-06-12T04:16:24.296Z,99.90
2018-06-12T04:18:54.951Z,99.90
2018-06-12T04:21:25.488Z,99.90
2018-06-12T04:23:56.074Z,99.90
2018-06-12T04:26:26.655Z,99.90
2018-06-12T04:28:57.308Z,99.90
2018-06-12T04:31:27.796Z,99.90
2018-06-12T04:33:58.391Z,99.90
2018-06-12T04:36:28.993Z,99.90
2018-06-12T04:38:59.565Z,99.90
2018-06-12T04:41:30.055Z,99.90
2018-06-12T04:44:00.562Z,99.90
2018-06-12T04:46:31.041Z,99.90
2018-06-12T04:49:01.480Z,99.90
2018-06-12T04:51:32.390Z,99.90
2018-06-12T04:54:03.332Z,99.90
2018-06-12T04:56:33.805Z,99.90
2018-06-12T04:59:04.847Z,99.90
2018-06-12T05:01:35.373Z,99.90
2018-06-12T05:04:06.311Z,99.90
2018-06-12T05:06:36.789Z,99.90
2018-06-12T05:09:08.767Z,99.90
2018-06-12T05:11:39.176Z,99.90
2018-06-12T05:14:09.685Z,99.90
2018-06-12T05:16:40.096Z,99.90
2018-06-12T05:19:10.489Z,99.90
2018-06-12T05:21:41.023Z,99.90
2018-06-12T05:24:11.553Z,99.90
2018-06-12T05:26:45.967Z,99.90
2018-06-12T05:29:16.488Z,99.90
2018-06-12T05:31:46.992Z,99.90
2018-06-12T05:34:17.420Z,99.90
2018-06-12T05:36:47.859Z,99.90
2018-06-12T05:39:18.464Z,99.90
2018-06-12T05:41:48.995Z,99.90
2018-06-12T05:44:19.763Z,99.90
2018-06-12T05:46:50.248Z,99.90
2018-06-12T05:49:20.777Z,99.90
2018-06-12T05:51:51.402Z,99.90
2018-06-12T05:54:22.258Z,99.90
2018-06-12T05:56:52.970Z,99.90
2018-06-12T05:59:23.445Z,99.90
2018-06-12T06:01:54.078Z,99.90
2018-06-12T06:04:25.079Z,99.90
2018-06-12T06:06:55.625Z,99.90
2018-06-12T06:09:26.184Z,99.90
2018-06-12T06:11:56.919Z,99.90
2018-06-12T06:14:27.738Z,99.90
2018-06-12T06:17:00.691Z,99.90
2018-06-12T06:19:31.345Z,99.90
2018-06-12T06:22:01.923Z,99.90
2018-06-12T06:24:32.994Z,99.90
2018-06-12T06:27:03.505Z,99.90
2018-06-12T06:29:34.121Z,99.90
2018-06-12T06:32:04.689Z,99.90
2018-06-12T06:34:35.287Z,99.90
2018-06-12T06:37:06.089Z,99.90
2018-06-12T06:39:36.515Z,99.90
2018-06-12T06:42:07.349Z,99.90
2018-06-12T06:44:37.891Z,99.90
2018-06-12T06:47:08.467Z,99.90
2018-06-12T06:49:39.052Z,99.90
2018-06-12T06:52:12.373Z,99.10
2018-06-12T06:54:43.493Z,99.40
2018-06-12T06:57:13.961Z,96.70
2018-06-12T06:59:44.512Z,97.50
2018-06-12T07:02:15.125Z,96.20
2018-06-12T07:04:45.830Z,97.80
2018-06-12T07:07:16.236Z,96.50
2018-06-12T07:09:46.898Z,97.70
2018-06-12T07:12:17.465Z,97.10
2018-06-12T07:14:48.003Z,96.20
2018-06-12T07:17:19.169Z,93.10
2018-06-12T07:19:49.873Z,95.70
2018-06-12T07:22:20.915Z,93.80
2018-06-12T07:24:51.750Z,96.40
2018-06-12T07:27:22.851Z,92.70
2018-06-12T07:29:53.530Z,92.50
2018-06-12T07:32:24.444Z,94.40
2018-06-12T07:34:55.724Z,95.00
2018-06-12T07:37:26.463Z,93.00
2018-06-12T07:39:56.868Z,91.80
2018-06-12T07:42:27.995Z,91.10
2018-06-12T07:44:58.944Z,90.40
2018-06-12T07:47:29.520Z,90.00
2018-06-12T07:50:00.804Z,90.80
2018-06-12T07:52:31.499Z,88.40
2018-06-12T07:55:02.174Z,89.00
2018-06-12T07:57:32.903Z,91.20
2018-06-12T08:00:03.813Z,90.40
2018-06-12T08:02:34.626Z,90.50
2018-06-12T08:05:05.469Z,87.50
2018-06-12T08:07:36.016Z,91.00
2018-06-12T08:10:06.533Z,90.70
2018-06-12T08:12:37.173Z,89.50
2018-06-12T08:15:08.672Z,88.90
2018-06-12T08:17:39.395Z,88.60
2018-06-12T08:20:10.276Z,86.40
2018-06-12T08:22:41.476Z,90.00
2018-06-12T08:25:12.653Z,88.90
2018-06-12T08:27:43.523Z,91.20
2018-06-12T08:30:14.472Z,89.90
2018-06-12T08:32:45.505Z,88.90
2018-06-12T08:35:16.134Z,90.40
2018-06-12T08:37:46.919Z,88.10
2018-06-12T08:40:17.735Z,88.50
2018-06-12T08:42:48.283Z,84.80
2018-06-12T08:45:18.874Z,84.00
2018-06-12T08:47:50.473Z,87.00
2018-06-12T08:50:21.169Z,85.00
2018-06-12T08:52:51.808Z,82.80
2018-06-12T08:55:22.571Z,84.00
2018-06-12T08:57:53.320Z,87.30
2018-06-12T09:00:23.969Z,82.10
2018-06-12T09:02:54.677Z,78.30
2018-06-12T09:05:25.404Z,79.50
2018-06-12T09:07:56.468Z,80.20
2018-06-12T09:10:27.122Z,82.90
2018-06-12T09:12:57.858Z,80.80
2018-06-12T09:15:28.658Z,83.10
2018-06-12T09:17:59.464Z,81.90
2018-06-12T09:20:30.576Z,77.90
2018-06-12T09:23:01.197Z,77.10
2018-06-12T09:25:31.836Z,75.10
2018-06-12T09:28:03.232Z,74.40
2018-06-12T09:30:33.999Z,74.00
2018-06-12T09:33:04.793Z,73.50
2018-06-12T09:38:05.759Z,73.80
2018-06-12T09:40:36.692Z,75.60
2018-06-12T09:43:07.552Z,80.10
2018-06-12T09:45:38.300Z,74.10
2018-06-12T09:48:08.851Z,71.40
2018-06-12T09:50:39.627Z,75.60
2018-06-12T09:53:10.416Z,72.50
2018-06-12T09:55:41.374Z,72.10
2018-06-12T09:58:12.098Z,72.30
2018-06-12T10:00:47.855Z,72.10
2018-06-12T10:03:18.844Z,72.70
2018-06-12T10:05:49.664Z,72.50
2018-06-12T10:08:20.708Z,71.60
2018-06-12T10:10:51.315Z,70.80
2018-06-12T10:13:21.931Z,73.20
2018-06-12T10:15:52.487Z,75.40
2018-06-12T10:18:23.216Z,71.30
2018-06-12T10:20:54.049Z,69.40
2018-06-12T10:25:54.462Z,70.40
2018-06-12T10:28:25.177Z,70.10
2018-06-12T10:30:55.909Z,69.00
2018-06-12T10:33:26.756Z,68.30
2018-06-12T10:35:57.435Z,66.40
2018-06-12T10:38:28.796Z,65.00
2018-06-12T10:40:59.324Z,67.20
2018-06-12T10:43:29.847Z,65.80
2018-06-12T10:46:00.717Z,67.40
2018-06-12T10:48:31.397Z,64.70
2018-06-12T10:51:01.926Z,61.80
2018-06-12T10:53:32.588Z,64.30
2018-06-12T10:56:03.238Z,64.20
2018-06-12T10:58:34.211Z,63.70
2018-06-12T11:01:04.929Z,64.40
2018-06-12T11:03:35.416Z,67.70
2018-06-12T11:06:06.412Z,65.00
2018-06-12T11:08:37.169Z,65.90
2018-06-12T11:13:37.997Z,63.00
2018-06-12T11:16:08.678Z,64.20
2018-06-12T11:18:39.986Z,64.20
2018-06-12T11:21:10.579Z,63.70
2018-06-12T11:23:41.284Z,64.10
2018-06-12T11:26:12.030Z,62.70
2018-06-12T11:28:42.743Z,64.40
2018-06-12T11:31:13.765Z,62.90
2018-06-12T11:33:44.660Z,67.10
2018-06-12T11:36:15.937Z,66.50
2018-06-12T11:38:46.696Z,63.50
2018-06-12T11:41:17.454Z,63.30
2018-06-12T11:43:48.321Z,63.60
2018-06-12T11:46:19.337Z,67.30
2018-06-12T11:48:50.042Z,67.50
2018-06-12T11:53:50.533Z,65.60
2018-06-12T11:56:21.298Z,61.10
2018-06-12T11:58:51.899Z,64.20
2018-06-12T12:01:22.724Z,63.30
2018-06-12T12:03:53.294Z,61.30
2018-06-12T12:06:24.290Z,63.40
2018-06-12T12:08:55.008Z,61.40
2018-06-12T12:11:25.687Z,62.60
2018-06-12T12:13:56.293Z,60.20
2018-06-12T12:16:27.136Z,60.20
2018-06-12T12:18:57.703Z,58.90
2018-06-12T12:21:28.803Z,56.40
2018-06-12T12:24:00.144Z,58.90
2018-06-12T12:26:34.124Z,59.70
2018-06-12T12:29:06.807Z,55.10
2018-06-12T12:31:38.946Z,54.60
2018-06-12T12:34:09.996Z,57.70
2018-06-12T12:36:46.364Z,58.40
2018-06-12T12:39:17.324Z,57.00
2018-06-12T12:44:18.039Z,55.10
2018-06-12T12:46:49.063Z,54.10
2018-06-12T12:49:19.769Z,54.90
2018-06-12T12:51:50.709Z,55.70
2018-06-12T12:54:21.695Z,55.10
2018-06-12T12:56:52.504Z,53.20
2018-06-12T12:59:23.555Z,55.60
2018-06-12T13:01:54.347Z,55.00
2018-06-12T13:04:25.087Z,54.50
2018-06-12T13:06:55.723Z,56.40
2018-06-12T13:09:27.775Z,56.10
2018-06-12T13:11:58.651Z,54.80
2018-06-12T13:14:29.881Z,52.40
2018-06-12T13:17:01.815Z,54.30
2018-06-12T13:19:34.532Z,53.60
2018-06-12T13:22:06.030Z,54.70
2018-06-12T13:24:38.592Z,52.90
2018-06-12T13:27:09.608Z,54.20
2018-06-12T13:29:49.718Z,55.50
2018-06-12T13:32:22.089Z,55.80
2018-06-12T13:34:53.610Z,56.90
2018-06-12T13:37:25.303Z,56.60
2018-06-12T13:39:57.430Z,58.60
2018-06-12T13:42:29.793Z,55.60
2018-06-12T13:45:01.537Z,58.40
2018-06-12T13:47:32.679Z,56.50
2018-06-12T13:50:03.700Z,54.80
2018-06-12T13:53:37.271Z,56.40
2018-06-12T13:56:10.089Z,54.60
2018-06-12T13:58:41.249Z,54.80
2018-06-12T14:01:11.801Z,56.60
2018-06-12T14:03:42.371Z,56.30
2018-06-12T14:06:13.070Z,57.00
2018-06-12T14:08:43.487Z,57.20
2018-06-12T14:11:14.524Z,55.60
2018-06-12T14:13:45.239Z,53.70
2018-06-12T14:16:15.971Z,55.60
2018-06-12T14:18:46.602Z,55.90
2018-06-12T14:21:18.111Z,56.20
2018-06-12T14:23:49.647Z,55.60
2018-06-12T14:26:20.631Z,57.60
2018-06-12T14:28:51.246Z,56.60
2018-06-12T14:31:22.175Z,56.00
2018-06-12T14:33:53.194Z,57.70
2018-06-12T14:36:23.730Z,56.30
2018-06-12T14:38:54.151Z,54.50
2018-06-12T14:41:24.557Z,55.00
2018-06-12T14:43:55.290Z,55.80
2018-06-12T14:46:26.136Z,56.30
2018-06-12T14:48:56.872Z,55.80
2018-06-12T14:51:27.735Z,55.00
2018-06-12T14:53:59.379Z,54.20
2018-06-12T14:56:30.868Z,55.50
2018-06-12T14:59:02.545Z,54.80
2018-06-12T15:01:33.799Z,54.60
2018-06-12T15:04:05.533Z,54.30
2018-06-12T15:06:42.473Z,54.30
2018-06-12T15:09:13.367Z,54.20
2018-06-12T15:11:45.372Z,54.60
2018-06-12T15:14:16.742Z,55.30
2018-06-12T15:16:48.793Z,55.30
2018-06-12T15:19:19.485Z,55.90
2018-06-12T15:21:50.661Z,56.10
2018-06-12T15:24:22.001Z,56.90
2018-06-12T15:26:52.433Z,56.60
2018-06-12T15:29:23.068Z,56.20
2018-06-12T15:31:53.523Z,56.40
2018-06-12T15:34:25.540Z,56.80
2018-06-12T15:36:56.056Z,57.50
2018-06-12T15:39:26.785Z,57.10
2018-06-12T15:41:57.634Z,57.10
2018-06-12T15:44:28.843Z,57.80
2018-06-12T15:46:59.176Z,58.30
2018-06-12T15:49:30.440Z,58.70
2018-06-12T15:52:02.006Z,58.60
2018-06-12T15:54:32.970Z,58.40
2018-06-12T15:57:04.210Z,58.90
2018-06-12T15:59:34.620Z,58.50
2018-06-12T16:02:05.241Z,60.40
2018-06-12T16:04:36.016Z,59.80
2018-06-12T16:07:06.592Z,58.90
2018-06-12T16:09:37.318Z,58.60
2018-06-12T16:12:07.799Z,58.30
2018-06-12T16:14:38.610Z,58.50
2018-06-12T16:17:09.084Z,59.20
2018-06-12T16:22:09.287Z,58.60
2018-06-12T16:24:39.754Z,58.20
2018-06-12T16:27:10.235Z,59.40
2018-06-12T16:29:40.580Z,59.60
2018-06-12T16:32:11.091Z,58.60
2018-06-12T16:34:41.513Z,57.70
2018-06-12T16:37:11.964Z,59.40
2018-06-12T16:39:42.390Z,61.20
2018-06-12T16:42:12.802Z,63.20
2018-06-12T16:44:43.612Z,64.30
2018-06-12T16:47:14.029Z,65.30
2018-06-12T16:49:44.352Z,64.70
2018-06-12T16:52:14.751Z,65.20
2018-06-12T16:54:45.508Z,69.80
2018-06-12T16:57:16.109Z,69.10
2018-06-12T16:59:46.693Z,69.40
2018-06-12T17:02:17.155Z,67.60
2018-06-12T17:04:47.863Z,67.50
2018-06-12T17:07:18.577Z,70.00
2018-06-12T17:09:49.121Z,71.50
2018-06-12T17:12:20.076Z,75.20
2018-06-12T17:14:50.661Z,73.10
2018-06-12T17:17:21.261Z,71.70
2018-06-12T17:19:51.834Z,75.70
2018-06-12T17:22:22.393Z,75.50
2018-06-12T17:24:52.878Z,75.60
2018-06-12T17:27:23.369Z,76.20
2018-06-12T17:29:53.851Z,76.10
2018-06-12T17:32:24.749Z,75.80
2018-06-12T17:34:55.139Z,74.80
2018-06-12T17:37:25.764Z,74.40
2018-06-12T17:39:56.262Z,73.00
2018-06-12T17:42:26.694Z,72.60
2018-06-12T17:44:57.236Z,71.60
2018-06-12T17:47:27.771Z,71.70
2018-06-12T17:49:58.283Z,71.70
2018-06-12T17:52:28.732Z,71.50
2018-06-12T17:54:59.144Z,71.70
2018-06-12T17:57:29.731Z,72.00
2018-06-12T18:00:00.145Z,72.00
2018-06-12T18:02:31.474Z,72.00
2018-06-12T18:05:04.000Z,72.60
2018-06-12T18:07:34.853Z,74.00
2018-06-12T18:10:07.527Z,76.60
2018-06-12T18:12:39.196Z,79.20
2018-06-12T18:17:39.714Z,80.00
2018-06-12T18:20:10.472Z,81.60
2018-06-12T18:22:41.052Z,82.30
2018-06-12T18:25:11.734Z,81.00
2018-06-12T18:27:44.359Z,81.30
2018-06-12T18:30:15.322Z,82.30
2018-06-12T18:32:48.078Z,83.00
2018-06-12T18:35:20.246Z,82.60
2018-06-12T18:37:51.389Z,83.80
2018-06-12T18:40:22.238Z,84.20
2018-06-12T18:42:52.967Z,85.00
2018-06-12T18:45:23.838Z,84.80
2018-06-12T18:47:56.756Z,85.00
2018-06-12T18:50:27.996Z,85.90
2018-06-12T18:52:58.932Z,87.10
2018-06-12T18:55:29.711Z,88.20
2018-06-12T18:58:00.538Z,89.10
2018-06-12T19:00:31.140Z,89.40
2018-06-12T19:03:01.703Z,88.40
2018-06-12T19:05:34.390Z,88.30
2018-06-12T19:08:05.496Z,87.40
2018-06-12T19:10:43.233Z,87.80
2018-06-12T19:13:14.189Z,87.90
2018-06-12T19:15:45.221Z,88.00
2018-06-12T19:18:16.522Z,88.90
2018-06-12T19:20:47.484Z,88.60
2018-06-12T19:23:18.960Z,90.00
2018-06-12T19:25:50.089Z,90.50
2018-06-12T19:30:51.971Z,90.10
2018-06-12T19:33:24.064Z,90.30
2018-06-12T19:35:56.610Z,90.40
2018-06-12T19:38:28.718Z,90.60
2018-06-12T19:41:00.428Z,90.50
2018-06-12T19:43:32.089Z,90.60
2018-06-12T19:46:03.769Z,90.50
2018-06-12T19:48:35.378Z,91.10
2018-06-12T19:51:07.191Z,91.70
2018-06-12T19:53:39.095Z,92.10
2018-06-12T19:56:10.986Z,92.10
2018-06-12T19:58:42.639Z,92.30
2018-06-12T20:01:19.104Z,91.90
2018-06-12T20:03:51.364Z,92.60
2018-06-12T20:06:27.562Z,94.00
2018-06-12T20:08:59.785Z,93.80
2018-06-12T20:11:31.453Z,94.10
2018-06-12T20:14:03.457Z,94.10
2018-06-12T20:16:35.240Z,93.90
2018-06-12T20:19:07.066Z,93.80
2018-06-12T20:21:38.803Z,93.40
2018-06-12T20:24:10.939Z,93.90
2018-06-12T20:26:42.728Z,94.30
2018-06-12T20:29:14.787Z,94.80
2018-06-12T20:31:49.203Z,94.00
2018-06-12T20:34:21.440Z,94.40
2018-06-12T20:36:57.946Z,95.00
2018-06-12T20:39:30.260Z,95.50
2018-06-12T20:42:02.047Z,95.70
2018-06-12T20:44:33.876Z,95.30
2018-06-12T20:47:05.393Z,95.60
2018-06-12T20:49:39.043Z,95.70
2018-06-12T20:52:11.938Z,96.30
2018-06-12T20:54:45.549Z,96.10
2018-06-12T20:57:18.495Z,96.60
2018-06-12T20:59:50.775Z,96.70
2018-06-12T21:02:23.372Z,97.20
2018-06-12T21:04:55.647Z,96.90
2018-06-12T21:07:27.675Z,97.20
2018-06-12T21:09:59.762Z,97.60
2018-06-12T21:12:31.380Z,97.70
2018-06-12T21:15:04.319Z,97.80
2018-06-12T21:17:36.407Z,97.90
2018-06-12T21:20:13.061Z,98.40
2018-06-12T21:22:44.874Z,98.10
2018-06-12T21:25:16.597Z,98.70
2018-06-12T21:27:48.724Z,98.80
2018-06-12T21:30:20.690Z,98.80
2018-06-12T21:32:52.522Z,98.70
2018-06-12T21:35:24.832Z,99.40
2018-06-12T21:37:57.241Z,98.60
2018-06-12T21:40:29.741Z,99.00
2018-06-12T21:43:01.622Z,99.30
2018-06-12T21:45:33.356Z,99.20
2018-06-12T21:48:06.489Z,99.70
2018-06-12T21:50:39.516Z,99.90
2018-06-12T21:53:11.392Z,99.90
2018-06-12T21:55:43.450Z,99.90
2018-06-12T21:58:15.113Z,99.90
2018-06-12T22:00:46.690Z,99.90
2018-06-12T22:03:18.095Z,99.90
2018-06-12T22:05:50.000Z,99.90
2018-06-12T22:08:21.528Z,99.90
2018-06-12T22:10:53.539Z,99.90
2018-06-12T22:13:25.033Z,99.90
2018-06-12T22:15:56.719Z,99.90
2018-06-12T22:18:28.671Z,99.90
2018-06-12T22:21:00.428Z,99.90
2018-06-12T22:23:32.467Z,99.90
2018-06-12T22:26:04.258Z,99.90
2018-06-12T22:28:36.123Z,99.90
2018-06-12T22:33:38.537Z,99.90
2018-06-12T22:36:10.305Z,99.90
2018-06-12T22:38:42.000Z,99.90
2018-06-12T22:41:13.315Z,99.90
2018-06-12T22:43:44.547Z,99.90
2018-06-12T22:46:16.011Z,99.90
2018-06-12T22:48:47.298Z,99.90
2018-06-12T22:51:17.794Z,99.90
2018-06-12T22:53:48.261Z,99.90
2018-06-12T22:56:18.711Z,99.90
2018-06-12T22:58:49.134Z,99.90
2018-06-12T23:01:19.780Z,99.90
2018-06-12T23:03:50.296Z,99.90
2018-06-12T23:06:21.227Z,99.90
2018-06-12T23:08:52.079Z,99.90
2018-06-12T23:11:22.735Z,99.90
2018-06-12T23:13:53.170Z,99.90
2018-06-12T23:16:23.722Z,99.90
2018-06-12T23:18:54.447Z,99.90
2018-06-12T23:21:47.472Z,99.90
2018-06-12T23:24:17.986Z,99.90
2018-06-12T23:26:48.668Z,99.90
2018-06-12T23:29:19.197Z,99.90
2018-06-12T23:31:49.567Z,99.90
2018-06-12T23:34:20.098Z,99.90
2018-06-12T23:36:50.592Z,99.90
2018-06-12T23:39:21.072Z,99.90
2018-06-12T23:41:51.685Z,99.90
2018-06-12T23:44:22.163Z,99.90
2018-06-12T23:46:52.537Z,99.90
2018-06-12T23:49:23.087Z,99.90
2018-06-12T23:51:53.579Z,99.90
2018-06-12T23:54:24.309Z,99.90
2018-06-12T23:56:54.853Z,99.90
2018-06-12T23:59:25.578Z,99.90
